Aviation Digital Data Service (ADDS)

Output produced by TAFs form (0632 UTC 21 April 2015)
found at http://aviationweather.gov/adds/tafs/
 
KAMA 210520Z 2106/2206 12010KT P6SM VCTS SCT040CB BKN080 
     TEMPO 2106/2108 VRB30KT 4SM TSRA BR BKN040CB 
     FM210800 15010KT P6SM VCSH OVC050 
     FM211000 07007KT P6SM BKN200 
     FM212100 16015KT P6SM SCT090